createdAt,value
2018-09-21T00:01:27.355Z,17.90
2018-09-21T00:04:06.701Z,17.80
2018-09-21T00:06:35.957Z,17.80
2018-09-21T00:09:07.476Z,17.80
2018-09-21T00:11:36.651Z,17.60
2018-09-21T00:14:05.893Z,17.70
2018-09-21T00:16:34.969Z,17.80
2018-09-21T00:19:04.134Z,17.90
2018-09-21T00:21:33.237Z,17.80
2018-09-21T00:24:02.339Z,17.90
2018-09-21T00:26:31.409Z,17.90
2018-09-21T00:29:00.483Z,17.80
2018-09-21T00:31:29.577Z,17.80
2018-09-21T00:33:58.672Z,17.80
2018-09-21T00:36:28.035Z,17.90
2018-09-21T00:38:57.116Z,17.80
2018-09-21T00:41:26.316Z,17.80
2018-09-21T00:43:55.535Z,17.90
2018-09-21T00:46:24.625Z,17.90
2018-09-21T00:48:53.699Z,17.90
2018-09-21T00:51:22.827Z,17.80
2018-09-21T00:53:51.888Z,17.70
2018-09-21T00:56:20.963Z,17.70
2018-09-21T00:58:50.045Z,17.70
2018-09-21T01:01:19.123Z,17.70
2018-09-21T01:03:48.201Z,17.70
2018-09-21T01:06:17.413Z,17.70
2018-09-21T01:08:46.681Z,17.70
2018-09-21T01:11:15.763Z,17.80
2018-09-21T01:13:44.861Z,17.70
2018-09-21T01:16:13.999Z,17.70
2018-09-21T01:18:43.071Z,17.70
2018-09-21T01:21:12.155Z,17.70
2018-09-21T01:23:41.315Z,17.70
2018-09-21T01:26:10.481Z,17.70
2018-09-21T01:28:40.167Z,17.70
2018-09-21T01:31:09.257Z,17.70
2018-09-21T01:33:38.347Z,17.60
2018-09-21T01:36:07.471Z,17.60
2018-09-21T01:38:36.531Z,17.50
2018-09-21T01:41:05.647Z,17.30
2018-09-21T01:43:34.747Z,17.50
2018-09-21T01:46:03.857Z,17.50
2018-09-21T01:48:33.129Z,17.50
2018-09-21T01:51:02.518Z,17.50
2018-09-21T01:53:31.641Z,17.30
2018-09-21T01:56:00.721Z,17.30
2018-09-21T01:58:29.809Z,17.20
2018-09-21T02:00:58.892Z,16.90
2018-09-21T02:03:27.967Z,17.10
2018-09-21T02:05:57.049Z,17.20
2018-09-21T02:08:26.123Z,17.10
2018-09-21T02:10:55.537Z,17.10
2018-09-21T02:13:24.625Z,16.90
2018-09-21T02:15:53.753Z,16.90
2018-09-21T02:18:22.869Z,16.80
2018-09-21T02:20:51.929Z,16.90
2018-09-21T02:23:21.067Z,16.90
2018-09-21T02:25:50.155Z,17.00
2018-09-21T02:28:19.366Z,17.00
2018-09-21T02:30:48.627Z,17.00
2018-09-21T02:33:17.725Z,17.10
2018-09-21T02:35:46.784Z,17.00
2018-09-21T02:38:15.846Z,17.00
2018-09-21T02:40:44.999Z,17.00
2018-09-21T02:43:14.057Z,17.00
2018-09-21T02:45:43.957Z,16.80
2018-09-21T02:48:13.073Z,16.90
2018-09-21T02:50:42.131Z,17.00
2018-09-21T02:53:11.236Z,17.00
2018-09-21T02:55:40.317Z,16.90
2018-09-21T02:58:09.621Z,17.00
2018-09-21T03:00:38.802Z,17.00
2018-09-21T03:03:08.600Z,16.90
2018-09-21T03:05:37.694Z,16.90
2018-09-21T03:08:06.800Z,16.90
2018-09-21T03:10:35.900Z,16.90
2018-09-21T03:13:05.209Z,16.80
2018-09-21T03:15:34.222Z,16.80
2018-09-21T03:18:03.323Z,16.90
2018-09-21T03:20:32.515Z,17.00
2018-09-21T03:23:01.588Z,16.90
2018-09-21T03:25:30.685Z,16.90
2018-09-21T03:27:59.762Z,16.90
2018-09-21T03:30:28.846Z,16.80
2018-09-21T03:32:57.950Z,16.70
2018-09-21T03:35:27.038Z,16.80
2018-09-21T03:37:56.116Z,16.80
2018-09-21T03:40:25.184Z,16.80
2018-09-21T03:42:54.467Z,16.70
2018-09-21T03:45:23.567Z,16.70
2018-09-21T03:47:52.661Z,16.60
2018-09-21T03:50:21.726Z,16.60
2018-09-21T03:52:50.823Z,16.60
2018-09-21T03:55:19.925Z,16.50
2018-09-21T03:57:49.020Z,16.50
2018-09-21T04:00:18.124Z,16.50
2018-09-21T04:02:47.196Z,16.60
2018-09-21T04:05:16.274Z,16.50
2018-09-21T04:07:45.365Z,16.50
2018-09-21T04:10:14.463Z,16.60
2018-09-21T04:12:43.580Z,16.60
2018-09-21T04:15:12.885Z,16.60
2018-09-21T04:17:41.937Z,16.50
2018-09-21T04:20:11.023Z,16.60
2018-09-21T04:22:40.099Z,16.60
2018-09-21T04:25:10.289Z,16.50
2018-09-21T04:27:39.493Z,16.40
2018-09-21T04:30:08.567Z,16.50
2018-09-21T04:32:37.633Z,16.50
2018-09-21T04:35:06.779Z,16.60
2018-09-21T04:37:35.875Z,16.50
2018-09-21T04:40:05.652Z,16.60
2018-09-21T04:42:34.719Z,16.50
2018-09-21T04:45:04.027Z,16.50
2018-09-21T04:47:33.223Z,16.50
2018-09-21T04:50:02.484Z,16.60
2018-09-21T04:52:31.675Z,16.40
2018-09-21T04:55:00.833Z,16.40
2018-09-21T04:57:30.065Z,16.30
2018-09-21T04:59:59.261Z,16.40
2018-09-21T05:02:28.539Z,16.40
2018-09-21T05:04:57.657Z,16.30
2018-09-21T05:07:26.781Z,16.20
2018-09-21T05:09:55.909Z,16.20
2018-09-21T05:12:25.049Z,16.20
2018-09-21T05:14:54.109Z,16.20
2018-09-21T05:17:23.695Z,16.20
2018-09-21T05:19:53.149Z,16.20
2018-09-21T05:22:22.165Z,16.30
2018-09-21T05:24:51.281Z,16.30
2018-09-21T05:27:20.357Z,16.30
2018-09-21T05:29:49.476Z,16.40
2018-09-21T05:32:18.552Z,16.50
2018-09-21T05:34:47.838Z,16.50
2018-09-21T05:37:17.300Z,16.50
2018-09-21T05:39:46.522Z,16.60
2018-09-21T05:42:15.621Z,16.60
2018-09-21T05:44:44.689Z,16.60
2018-09-21T05:47:13.826Z,16.60
2018-09-21T05:49:42.845Z,16.70
2018-09-21T05:52:12.133Z,16.50
2018-09-21T05:54:41.221Z,16.60
2018-09-21T05:57:10.282Z,16.60
2018-09-21T05:59:39.414Z,16.70
2018-09-21T06:02:08.577Z,16.80
2018-09-21T06:04:37.648Z,16.90
2018-09-21T06:07:06.767Z,16.90
2018-09-21T06:09:35.818Z,16.90
2018-09-21T06:12:04.905Z,16.80
2018-09-21T06:14:33.991Z,16.80
2018-09-21T06:17:03.036Z,16.80
2018-09-21T06:19:32.602Z,16.90
2018-09-21T06:22:01.970Z,17.00
2018-09-21T06:24:31.424Z,17.00
2018-09-21T06:27:00.887Z,17.10
2018-09-21T06:29:30.144Z,17.10
2018-09-21T06:31:59.917Z,17.20
2018-09-21T06:34:29.276Z,17.30
2018-09-21T06:36:58.606Z,17.20
2018-09-21T06:39:27.954Z,17.30
2018-09-21T06:41:57.162Z,17.30
2018-09-21T06:44:26.402Z,17.20
2018-09-21T06:46:55.762Z,17.20
2018-09-21T06:49:24.954Z,17.40
2018-09-21T06:51:54.162Z,17.40
2018-09-21T06:54:23.370Z,17.60
2018-09-21T06:56:52.469Z,17.20
2018-09-21T06:59:21.556Z,17.20
2018-09-21T07:01:50.737Z,17.20
2018-09-21T07:04:19.730Z,17.20
2018-09-21T07:06:48.824Z,17.20
2018-09-21T07:09:17.938Z,17.40
2018-09-21T07:11:47.338Z,17.40
2018-09-21T07:14:16.404Z,17.40
2018-09-21T07:16:45.614Z,17.40
2018-09-21T07:19:14.698Z,17.50
2018-09-21T07:21:43.969Z,17.60
2018-09-21T07:24:13.058Z,17.70
2018-09-21T07:26:42.218Z,17.90
2018-09-21T07:29:11.378Z,18.10
2018-09-21T07:31:40.530Z,18.20
2018-09-21T07:34:09.636Z,18.30
2018-09-21T07:36:38.712Z,18.40
2018-09-21T07:39:08.288Z,18.30
2018-09-21T07:41:37.380Z,18.30
2018-09-21T07:44:06.476Z,18.30
2018-09-21T07:46:35.558Z,18.50
2018-09-21T07:49:04.685Z,18.90
2018-09-21T07:51:33.746Z,18.80
2018-09-21T07:54:02.862Z,18.90
2018-09-21T07:56:31.942Z,19.20
2018-09-21T07:59:01.062Z,19.20
2018-09-21T08:01:30.191Z,19.10
2018-09-21T08:03:59.292Z,19.10
2018-09-21T08:06:28.406Z,19.30
2018-09-21T08:08:57.492Z,19.50
2018-09-21T08:11:26.590Z,19.50
2018-09-21T08:13:56.176Z,19.50
2018-09-21T08:16:25.310Z,19.60
2018-09-21T08:18:54.434Z,19.40
2018-09-21T08:21:23.563Z,19.40
2018-09-21T08:23:52.958Z,19.50
2018-09-21T08:26:22.056Z,19.50
2018-09-21T08:28:54.436Z,19.70
2018-09-21T08:31:23.568Z,19.60
2018-09-21T08:33:53.328Z,19.70
2018-09-21T08:36:22.970Z,19.90
2018-09-21T08:38:52.452Z,20.00
2018-09-21T08:41:21.578Z,20.20
2018-09-21T08:43:50.690Z,20.40
2018-09-21T08:46:19.750Z,20.50
2018-09-21T08:48:48.901Z,20.50
2018-09-21T08:51:18.013Z,20.50
2018-09-21T08:53:47.288Z,20.80
2018-09-21T08:56:16.390Z,21.00
2018-09-21T08:58:45.490Z,21.20
2018-09-21T09:01:14.653Z,21.30
2018-09-21T09:03:43.721Z,21.40
2018-09-21T09:06:13.439Z,21.50
2018-09-21T09:08:42.551Z,21.80
2018-09-21T09:11:12.105Z,22.20
2018-09-21T09:13:41.258Z,22.30
2018-09-21T09:16:10.364Z,22.30
2018-09-21T09:18:39.492Z,22.40
2018-09-21T09:21:09.405Z,22.30
2018-09-21T09:23:38.502Z,22.30
2018-09-21T09:26:08.165Z,22.20
2018-09-21T09:28:37.314Z,22.40
2018-09-21T09:31:06.643Z,22.70
2018-09-21T09:33:35.716Z,22.70
2018-09-21T09:36:04.906Z,23.00
2018-09-21T09:38:33.980Z,23.50
2018-09-21T09:41:03.091Z,23.50
2018-09-21T09:43:32.268Z,23.90
2018-09-21T09:46:01.441Z,23.80
2018-09-21T09:48:30.609Z,23.70
2018-09-21T09:50:59.625Z,24.00
2018-09-21T09:53:28.715Z,24.10
2018-09-21T09:55:57.802Z,24.10
2018-09-21T09:58:26.933Z,23.90
2018-09-21T10:00:56.051Z,24.20
2018-09-21T10:03:25.740Z,24.70
2018-09-21T10:05:54.785Z,24.80
2018-09-21T10:08:24.573Z,25.00
2018-09-21T10:10:53.733Z,25.20
2018-09-21T10:13:22.802Z,25.50
2018-09-21T10:15:51.921Z,25.80
2018-09-21T10:18:20.993Z,25.40
2018-09-21T10:20:50.169Z,25.30
2018-09-21T10:23:19.170Z,25.90
2018-09-21T10:25:48.295Z,26.10
2018-09-21T10:28:18.760Z,26.20
2018-09-21T10:30:48.387Z,25.80
2018-09-21T10:33:17.574Z,25.60
2018-09-21T10:35:47.223Z,25.90
2018-09-21T10:38:16.307Z,26.30
2018-09-21T10:40:45.394Z,26.40
2018-09-21T10:43:14.524Z,26.20
2018-09-21T10:45:43.536Z,26.30
2018-09-21T10:48:12.608Z,26.50
2018-09-21T10:50:41.685Z,26.80
2018-09-21T10:53:10.805Z,26.70
2018-09-21T10:55:39.871Z,26.10
2018-09-21T10:58:08.980Z,26.60
2018-09-21T11:00:38.078Z,26.50
2018-09-21T11:03:07.175Z,26.50
2018-09-21T11:05:36.262Z,26.40
2018-09-21T11:08:05.384Z,26.40
2018-09-21T11:10:34.451Z,26.20
2018-09-21T11:13:03.552Z,25.70
2018-09-21T11:15:32.594Z,25.70
2018-09-21T11:18:01.662Z,26.20
2018-09-21T11:20:30.736Z,26.50
2018-09-21T11:22:59.796Z,26.80
2018-09-21T11:25:28.879Z,26.60
2018-09-21T11:27:57.956Z,27.10
2018-09-21T11:30:27.131Z,26.50
2018-09-21T11:32:56.265Z,26.50
2018-09-21T11:35:25.366Z,26.40
2018-09-21T11:37:54.435Z,26.20
2018-09-21T11:40:23.544Z,26.10
2018-09-21T11:42:52.618Z,26.10
2018-09-21T11:45:21.691Z,25.80
2018-09-21T11:47:50.847Z,25.80
2018-09-21T11:50:19.908Z,26.00
2018-09-21T11:52:48.978Z,26.10
2018-09-21T11:55:18.094Z,26.00
2018-09-21T11:57:47.248Z,25.90
2018-09-21T12:00:17.031Z,25.80
2018-09-21T12:02:46.128Z,25.80
2018-09-21T12:05:15.221Z,26.00
2018-09-21T12:07:44.554Z,26.00
2018-09-21T12:10:13.633Z,26.00
2018-09-21T12:12:42.721Z,26.10
2018-09-21T12:15:11.789Z,26.00
2018-09-21T12:17:40.873Z,25.80
2018-09-21T12:20:09.976Z,26.00
2018-09-21T12:22:39.066Z,26.10
2018-09-21T12:25:08.206Z,25.80
2018-09-21T12:27:37.280Z,25.60
2018-09-21T12:30:06.421Z,25.30
2018-09-21T12:32:35.663Z,25.30
2018-09-21T12:35:04.873Z,25.30
2018-09-21T12:37:34.211Z,25.40
2018-09-21T12:40:03.305Z,25.60
2018-09-21T12:42:32.496Z,26.00
2018-09-21T12:45:03.039Z,25.90
2018-09-21T12:47:32.194Z,25.80
2018-09-21T12:50:01.332Z,25.70
2018-09-21T12:52:30.400Z,25.70
2018-09-21T12:54:59.495Z,25.80
2018-09-21T12:57:29.499Z,25.60
2018-09-21T12:59:58.653Z,25.50
2018-09-21T13:02:27.809Z,25.30
2018-09-21T13:04:57.494Z,25.10
2018-09-21T13:07:26.745Z,25.10
2018-09-21T13:09:55.839Z,24.40
2018-09-21T13:12:24.929Z,23.90
2018-09-21T13:14:54.017Z,23.50
2018-09-21T13:17:23.127Z,23.50
2018-09-21T13:19:52.211Z,23.70
2018-09-21T13:22:21.330Z,23.20
2018-09-21T13:24:50.445Z,23.20
2018-09-21T13:27:19.539Z,23.20
2018-09-21T13:29:48.654Z,23.10
2018-09-21T13:32:17.819Z,23.00
2018-09-21T13:34:47.260Z,22.60
2018-09-21T13:37:16.324Z,22.40
2018-09-21T13:39:45.639Z,22.40
2018-09-21T13:42:14.707Z,22.30
2018-09-21T13:44:43.759Z,22.50
2018-09-21T13:47:12.876Z,22.70
2018-09-21T13:49:41.940Z,22.70
2018-09-21T13:52:11.071Z,22.90
2018-09-21T13:54:40.110Z,23.20
2018-09-21T13:57:09.204Z,23.20
2018-09-21T13:59:38.279Z,23.30
2018-09-21T14:02:07.467Z,23.50
2018-09-21T14:04:36.708Z,23.40
2018-09-21T14:07:05.890Z,23.50
2018-09-21T14:09:34.956Z,23.40
2018-09-21T14:12:04.053Z,23.40
2018-09-21T14:14:33.189Z,23.20
2018-09-21T14:17:02.307Z,23.30
2018-09-21T14:19:31.987Z,23.10
2018-09-21T14:22:01.082Z,22.90
2018-09-21T14:24:30.217Z,22.50
2018-09-21T14:26:59.461Z,22.30
2018-09-21T14:29:28.537Z,22.20
2018-09-21T14:31:57.789Z,22.10
2018-09-21T14:34:26.842Z,22.10
2018-09-21T14:36:55.936Z,22.10
2018-09-21T14:39:25.275Z,22.00
2018-09-21T14:41:54.525Z,22.10
2018-09-21T14:44:23.660Z,22.20
2018-09-21T14:46:52.722Z,22.30
2018-09-21T14:49:21.804Z,22.20
2018-09-21T14:51:50.930Z,22.10
2018-09-21T14:54:20.034Z,22.10
2018-09-21T14:56:49.082Z,22.20
2018-09-21T14:59:18.212Z,22.30
2018-09-21T15:01:47.307Z,22.50
2018-09-21T15:04:16.450Z,22.50
2018-09-21T15:06:45.758Z,22.50
2018-09-21T15:09:14.807Z,22.50
2018-09-21T15:11:43.920Z,22.30
2018-09-21T15:14:13.044Z,22.20
2018-09-21T15:16:42.178Z,22.30
2018-09-21T15:19:11.367Z,22.00
2018-09-21T15:21:40.490Z,22.00
2018-09-21T15:24:09.708Z,22.00
2018-09-21T15:26:38.841Z,22.10
2018-09-21T15:29:08.246Z,22.10
2018-09-21T15:31:37.313Z,21.90
2018-09-21T15:34:06.403Z,21.80
2018-09-21T15:36:35.459Z,21.80
2018-09-21T15:39:06.792Z,21.80
2018-09-21T15:41:36.017Z,21.80
2018-09-21T15:44:05.464Z,21.80
2018-09-21T15:46:34.626Z,22.00
2018-09-21T15:49:04.536Z,22.20
2018-09-21T15:51:33.957Z,22.30
2018-09-21T15:54:03.031Z,22.40
2018-09-21T15:56:32.078Z,22.40
2018-09-21T15:59:01.206Z,22.30
2018-09-21T16:01:30.304Z,22.30
2018-09-21T16:03:59.953Z,22.30
2018-09-21T16:06:32.479Z,22.30
2018-09-21T16:09:03.281Z,22.30
2018-09-21T16:11:32.359Z,22.20
2018-09-21T16:14:01.435Z,22.10
2018-09-21T16:16:30.527Z,22.20
2018-09-21T16:18:59.643Z,22.20
2018-09-21T16:21:28.709Z,22.20
2018-09-21T16:23:57.851Z,22.20
2018-09-21T16:26:26.946Z,22.20
2018-09-21T16:28:56.037Z,22.10
2018-09-21T16:31:25.142Z,22.20
2018-09-21T16:33:54.227Z,22.20
2018-09-21T16:36:23.336Z,22.00
2018-09-21T16:38:52.394Z,21.90
2018-09-21T16:41:21.452Z,21.50
2018-09-21T16:43:50.533Z,21.20
2018-09-21T16:46:20.105Z,21.10
2018-09-21T16:48:49.193Z,20.70
2018-09-21T16:51:18.313Z,20.20
2018-09-21T16:53:47.423Z,20.00
2018-09-21T16:56:16.497Z,19.70
2018-09-21T16:58:45.571Z,19.30
2018-09-21T17:01:14.651Z,19.20
2018-09-21T17:03:43.733Z,18.70
2018-09-21T17:06:12.810Z,18.70
2018-09-21T17:08:41.918Z,18.50
2018-09-21T17:11:11.229Z,18.30
2018-09-21T17:13:40.449Z,18.20
2018-09-21T17:16:09.643Z,17.80
2018-09-21T17:18:38.759Z,17.50
2018-09-21T17:21:08.167Z,17.20
2018-09-21T17:23:37.239Z,17.20
2018-09-21T17:26:06.502Z,17.00
2018-09-21T17:28:35.895Z,17.10
2018-09-21T17:33:33.641Z,16.70
2018-09-21T17:36:02.739Z,16.60
2018-09-21T17:38:31.815Z,16.40
2018-09-21T17:41:00.919Z,16.20
2018-09-21T17:43:29.999Z,16.20
2018-09-21T17:45:59.187Z,16.00
2018-09-21T17:48:29.259Z,16.00
2018-09-21T17:50:58.339Z,15.70
2018-09-21T17:53:27.441Z,15.70
2018-09-21T17:55:56.573Z,15.60
2018-09-21T17:58:26.505Z,15.50
2018-09-21T18:00:55.622Z,15.30
2018-09-21T18:03:24.729Z,15.20
2018-09-21T18:05:53.827Z,15.10
2018-09-21T18:08:22.900Z,15.00
2018-09-21T18:10:51.999Z,14.90
2018-09-21T18:13:21.045Z,14.90
2018-09-21T18:15:50.120Z,14.80
2018-09-21T18:18:19.225Z,14.80
2018-09-21T18:20:48.365Z,14.70
2018-09-21T18:25:46.255Z,14.50
2018-09-21T18:28:15.220Z,14.40
2018-09-21T18:30:44.298Z,14.30
2018-09-21T18:33:13.380Z,14.10
2018-09-21T18:35:42.894Z,14.20
2018-09-21T18:38:12.008Z,14.10
2018-09-21T18:40:41.126Z,13.80
2018-09-21T18:43:10.309Z,13.80
2018-09-21T18:45:39.424Z,13.70
2018-09-21T18:48:08.552Z,13.70
2018-09-21T18:50:38.076Z,13.70
2018-09-21T18:53:07.128Z,13.70
2018-09-21T18:55:36.205Z,13.60
2018-09-21T18:58:05.959Z,13.50
2018-09-21T19:00:36.196Z,13.40
2018-09-21T19:03:05.677Z,13.30
2018-09-21T19:05:34.797Z,13.40
2018-09-21T19:08:03.941Z,13.60
2018-09-21T19:10:33.061Z,13.70
2018-09-21T19:13:02.152Z,13.80
2018-09-21T19:15:31.859Z,13.80
2018-09-21T19:18:01.247Z,13.70
2018-09-21T19:20:30.526Z,13.70
2018-09-21T19:22:59.922Z,13.60
2018-09-21T19:25:29.305Z,13.40
2018-09-21T19:27:59.676Z,13.30
2018-09-21T19:30:29.072Z,13.30
2018-09-21T19:32:59.405Z,13.40
2018-09-21T19:35:28.582Z,13.40
2018-09-21T19:37:57.676Z,13.40
2018-09-21T19:40:27.379Z,13.40
2018-09-21T19:42:56.551Z,13.40
2018-09-21T19:45:26.701Z,13.50
2018-09-21T19:47:55.574Z,13.50
2018-09-21T19:50:24.655Z,13.60
2018-09-21T19:52:54.282Z,13.50
2018-09-21T19:55:23.632Z,13.70
2018-09-21T19:57:52.724Z,13.60
2018-09-21T20:00:21.826Z,13.60
2018-09-21T20:02:50.946Z,13.60
2018-09-21T20:05:20.052Z,13.60
2018-09-21T20:07:49.156Z,13.60
2018-09-21T20:10:18.545Z,13.60
2018-09-21T20:12:47.618Z,13.70
2018-09-21T20:15:16.798Z,13.80
2018-09-21T20:17:45.871Z,13.70
2018-09-21T20:20:14.956Z,13.90
2018-09-21T20:22:44.066Z,13.80
2018-09-21T20:25:13.254Z,13.90
2018-09-21T20:27:42.382Z,13.90
2018-09-21T20:30:16.857Z,13.70
2018-09-21T20:32:51.243Z,13.60
2018-09-21T20:35:20.554Z,13.70
2018-09-21T20:37:49.681Z,13.70
2018-09-21T20:40:18.796Z,13.80
2018-09-21T20:42:47.881Z,13.90
2018-09-21T20:45:16.973Z,13.90
2018-09-21T20:47:46.093Z,13.80
2018-09-21T20:50:15.149Z,13.90
2018-09-21T20:52:44.237Z,13.90
2018-09-21T20:55:13.566Z,14.00
2018-09-21T20:57:42.649Z,14.10
2018-09-21T21:00:11.792Z,14.00
2018-09-21T21:02:40.935Z,13.90
2018-09-21T21:05:10.096Z,13.90
2018-09-21T21:07:39.750Z,13.90
2018-09-21T21:10:09.128Z,14.00
2018-09-21T21:12:38.177Z,14.00
2018-09-21T21:15:07.450Z,13.70
2018-09-21T21:17:36.560Z,13.60
2018-09-21T21:20:05.959Z,13.50
2018-09-21T21:22:35.024Z,13.50
2018-09-21T21:25:04.134Z,13.60
2018-09-21T21:27:33.215Z,13.60
2018-09-21T21:30:02.294Z,13.50
2018-09-21T21:32:31.395Z,13.50
2018-09-21T21:35:00.678Z,13.50
2018-09-21T21:37:29.736Z,13.60
2018-09-21T21:39:58.899Z,13.60
2018-09-21T21:42:28.002Z,13.60
2018-09-21T21:44:57.121Z,13.70
2018-09-21T21:47:26.181Z,13.70
2018-09-21T21:49:55.241Z,13.50
2018-09-21T21:52:24.424Z,13.60
2018-09-21T21:54:53.557Z,13.80
2018-09-21T21:57:23.718Z,13.80
2018-09-21T21:59:53.389Z,13.80
2018-09-21T22:02:22.703Z,13.70
2018-09-21T22:04:51.796Z,13.70
2018-09-21T22:07:20.916Z,13.50
2018-09-21T22:09:52.061Z,13.50
2018-09-21T22:14:29.091Z,13.60
2018-09-21T22:16:59.039Z,13.30
2018-09-21T22:19:28.175Z,13.30
2018-09-21T22:21:57.285Z,13.50
2018-09-21T22:24:26.389Z,13.30
2018-09-21T22:26:55.483Z,13.50
2018-09-21T22:29:24.588Z,13.60
2018-09-21T22:31:53.651Z,13.70
2018-09-21T22:34:22.707Z,13.80
2018-09-21T22:36:51.799Z,13.80
2018-09-21T22:39:21.017Z,13.90
2018-09-21T22:41:50.091Z,13.90
2018-09-21T22:44:19.649Z,13.90
2018-09-21T22:46:48.701Z,13.90
2018-09-21T22:49:22.329Z,13.90
2018-09-21T22:51:51.414Z,13.80
2018-09-21T22:54:20.490Z,13.90
2018-09-21T22:56:49.604Z,14.00
2018-09-21T22:59:18.821Z,14.00
2018-09-21T23:01:47.873Z,14.10
2018-09-21T23:04:16.970Z,14.00
2018-09-21T23:06:46.075Z,14.00
2018-09-21T23:09:15.125Z,14.00
2018-09-21T23:11:44.228Z,14.00
2018-09-21T23:14:13.333Z,13.90
2018-09-21T23:16:42.431Z,13.90
2018-09-21T23:19:11.541Z,13.90
2018-09-21T23:21:41.259Z,13.80
2018-09-21T23:24:10.360Z,13.70
2018-09-21T23:26:39.403Z,13.50
2018-09-21T23:29:08.530Z,13.60
2018-09-21T23:31:38.294Z,13.70
2018-09-21T23:34:07.392Z,13.70
2018-09-21T23:36:36.465Z,13.80
2018-09-21T23:39:08.411Z,13.90
2018-09-21T23:41:37.769Z,14.00
2018-09-21T23:44:07.154Z,13.90
2018-09-21T23:46:36.225Z,13.80
2018-09-21T23:49:05.511Z,13.80
2018-09-21T23:51:34.603Z,13.70
2018-09-21T23:54:03.701Z,13.70
2018-09-21T23:56:32.813Z,13.70
2018-09-21T23:59:01.909Z,13.70
